createdAt,value
2023-03-21T00:01:52.611Z,244.30
2023-03-21T00:04:20.399Z,228.27
2023-03-21T00:06:48.037Z,235.50
2023-03-21T00:09:15.743Z,243.70
2023-03-21T00:11:43.629Z,254.77
2023-03-21T00:14:14.488Z,250.53
2023-03-21T00:16:45.771Z,246.30
2023-03-21T00:19:16.036Z,239.80
2023-03-21T00:21:59.608Z,230.63
2023-03-21T00:24:32.074Z,215.50
2023-03-21T00:27:15.871Z,243.87
2023-03-21T00:29:49.309Z,223.07
2023-03-21T00:32:19.856Z,217.70
2023-03-21T00:35:38.410Z,227.50
2023-03-21T00:37:38.455Z,227.87
2023-03-21T00:40:16.262Z,230.30
2023-03-21T00:42:47.315Z,235.17
2023-03-21T00:45:16.504Z,244.67
2023-03-21T00:47:44.214Z,245.00
2023-03-21T00:50:14.580Z,243.83
2023-03-21T00:52:42.504Z,248.90
2023-03-21T00:55:14.431Z,231.50
2023-03-21T00:57:45.352Z,244.77
2023-03-21T01:00:17.886Z,241.23
2023-03-21T01:03:02.784Z,252.77
2023-03-21T01:05:55.525Z,242.80
2023-03-21T01:08:30.998Z,231.33
2023-03-21T01:11:05.717Z,240.77
2023-03-21T01:13:36.341Z,242.90
2023-03-21T01:16:06.176Z,230.00
2023-03-21T01:18:35.682Z,241.13
2023-03-21T01:21:08.279Z,271.70
2023-03-21T01:23:36.389Z,267.73
2023-03-21T01:26:04.448Z,240.43
2023-03-21T01:28:32.772Z,236.77
2023-03-21T01:31:02.764Z,254.87
2023-03-21T01:33:31.426Z,247.57
2023-03-21T01:36:11.744Z,268.47
2023-03-21T01:38:42.469Z,249.37
2023-03-21T01:41:36.642Z,259.33
2023-03-21T01:44:17.148Z,226.57
2023-03-21T01:46:57.365Z,238.97
2023-03-21T01:49:50.649Z,232.37
2023-03-21T01:52:35.909Z,239.90
2023-03-21T01:55:12.523Z,255.57
2023-03-21T01:58:08.193Z,234.67
2023-03-21T02:00:50.065Z,217.67
2023-03-21T02:03:35.807Z,240.73
2023-03-21T02:06:33.542Z,235.53
2023-03-21T02:09:14.889Z,224.10
2023-03-21T02:11:46.521Z,245.00
2023-03-21T02:14:26.648Z,245.93
2023-03-21T02:17:10.361Z,228.70
2023-03-21T02:20:16.888Z,247.83
2023-03-21T02:23:11.542Z,217.87
2023-03-21T02:26:18.629Z,215.57
2023-03-21T02:28:50.407Z,220.43
2023-03-21T02:31:34.375Z,216.37
2023-03-21T02:34:33.502Z,220.73
2023-03-21T02:37:17.141Z,211.77
2023-03-21T02:39:55.688Z,226.60
2023-03-21T02:42:30.529Z,215.00
2023-03-21T02:45:04.341Z,219.97
2023-03-21T02:47:40.520Z,243.70
2023-03-21T02:50:13.205Z,235.57
2023-03-21T02:52:45.995Z,224.87
2023-03-21T02:55:18.915Z,230.50
2023-03-21T02:58:12.457Z,231.87
2023-03-21T03:00:47.380Z,233.17
2023-03-21T03:03:33.645Z,224.87
2023-03-21T03:06:08.533Z,219.60
2023-03-21T03:08:56.323Z,221.97
2023-03-21T03:11:32.424Z,228.00
2023-03-21T03:14:36.993Z,250.13
2023-03-21T03:17:18.545Z,223.30
2023-03-21T03:20:04.286Z,219.07
2023-03-21T03:22:48.065Z,215.87
2023-03-21T03:25:32.609Z,206.67
2023-03-21T03:28:09.265Z,218.63
2023-03-21T03:30:44.942Z,216.33
2023-03-21T03:33:23.348Z,195.83
2023-03-21T03:36:04.657Z,189.43
2023-03-21T03:38:36.696Z,204.33
2023-03-21T03:41:11.580Z,190.60
2023-03-21T03:43:56.976Z,197.90
2023-03-21T03:46:33.346Z,191.80
2023-03-21T03:49:06.981Z,191.27
2023-03-21T03:51:41.986Z,200.93
2023-03-21T03:54:25.423Z,184.60
2023-03-21T03:56:55.724Z,198.53
2023-03-21T03:59:25.018Z,199.93
2023-03-21T04:02:20.170Z,190.73
2023-03-21T04:04:52.828Z,208.03
2023-03-21T04:07:21.423Z,211.13
2023-03-21T04:09:51.880Z,214.37
2023-03-21T04:12:22.644Z,197.13
2023-03-21T04:15:11.071Z,182.83
2023-03-21T04:17:45.351Z,189.77
2023-03-21T04:20:23.629Z,191.50
2023-03-21T04:22:58.248Z,179.07
2023-03-21T04:25:33.981Z,202.90
2023-03-21T04:28:05.572Z,212.00
2023-03-21T04:31:02.522Z,180.23
2023-03-21T04:33:41.788Z,175.67
2023-03-21T04:36:26.328Z,199.47
2023-03-21T04:39:00.734Z,184.30
2023-03-21T04:41:29.639Z,182.07
2023-03-21T04:43:59.463Z,181.63
2023-03-21T04:46:27.157Z,187.47
2023-03-21T04:48:55.418Z,199.50
2023-03-21T04:51:23.358Z,194.50
2023-03-21T04:53:52.472Z,198.40
2023-03-21T04:56:20.365Z,182.43
2023-03-21T04:58:48.068Z,204.00
2023-03-21T05:01:20.775Z,209.17
2023-03-21T05:03:49.162Z,190.23
2023-03-21T05:06:17.014Z,185.37
2023-03-21T05:08:45.176Z,189.20
2023-03-21T05:11:13.483Z,193.07
2023-03-21T05:13:41.517Z,193.90
2023-03-21T05:16:10.166Z,184.27
2023-03-21T05:18:39.556Z,180.33
2023-03-21T05:21:18.015Z,180.63
2023-03-21T05:23:54.854Z,189.27
2023-03-21T05:26:23.961Z,194.77
2023-03-21T05:29:12.128Z,177.97
2023-03-21T05:31:39.894Z,177.47
2023-03-21T05:34:13.666Z,197.53
2023-03-21T05:36:41.637Z,182.27
2023-03-21T05:39:11.206Z,182.60
2023-03-21T05:41:44.122Z,184.37
2023-03-21T05:44:11.965Z,174.90
2023-03-21T05:46:40.774Z,175.67
2023-03-21T05:49:08.468Z,179.90
2023-03-21T05:51:37.972Z,197.17
2023-03-21T05:54:06.294Z,191.30
2023-03-21T05:56:34.818Z,183.73
2023-03-21T05:59:05.801Z,185.67
2023-03-21T06:01:38.884Z,182.67
2023-03-21T06:04:11.980Z,187.03
2023-03-21T06:06:42.076Z,180.67
2023-03-21T06:09:09.882Z,173.10
2023-03-21T06:11:48.274Z,176.43
2023-03-21T06:14:35.573Z,163.20
2023-03-21T06:17:15.821Z,178.60
2023-03-21T06:19:51.907Z,174.77
2023-03-21T06:22:31.262Z,177.63
2023-03-21T06:24:59.149Z,187.93
2023-03-21T06:27:27.963Z,177.67
2023-03-21T06:29:57.942Z,183.03
2023-03-21T06:32:25.878Z,208.10
2023-03-21T06:34:58.757Z,204.00
2023-03-21T06:37:27.364Z,195.17
2023-03-21T06:39:57.024Z,203.57
2023-03-21T06:42:26.227Z,210.00
2023-03-21T06:44:59.802Z,210.00
2023-03-21T06:47:28.363Z,210.47
2023-03-21T06:49:56.525Z,223.90
2023-03-21T06:52:24.226Z,207.93
2023-03-21T06:54:54.462Z,237.63
2023-03-21T06:57:24.052Z,214.47
2023-03-21T06:59:51.776Z,239.50
2023-03-21T07:02:21.826Z,222.87
2023-03-21T07:05:08.503Z,201.70
2023-03-21T07:07:37.399Z,223.93
2023-03-21T07:10:06.288Z,256.65
2023-03-21T07:12:44.365Z,277.90
2023-03-21T07:15:17.468Z,269.20
2023-03-21T07:17:46.652Z,283.70
2023-03-21T07:20:14.419Z,286.63
2023-03-21T07:22:42.503Z,290.42
2023-03-21T07:25:11.402Z,286.30
2023-03-21T07:27:41.392Z,269.55
2023-03-21T07:30:12.341Z,273.98
2023-03-21T07:32:40.353Z,262.02
2023-03-21T07:35:09.792Z,272.58
2023-03-21T07:37:38.298Z,265.30
2023-03-21T07:40:10.498Z,235.80
2023-03-21T07:42:40.329Z,248.98
2023-03-21T07:45:14.455Z,238.90
2023-03-21T07:47:43.001Z,240.68
2023-03-21T07:50:11.351Z,238.48
2023-03-21T07:52:39.444Z,229.70
2023-03-21T07:55:07.617Z,220.23
2023-03-21T07:57:35.520Z,228.57
2023-03-21T08:00:05.255Z,234.02
2023-03-21T08:02:41.803Z,222.60
2023-03-21T08:05:11.523Z,233.35
2023-03-21T08:07:39.259Z,229.18
2023-03-21T08:10:08.259Z,216.90
2023-03-21T08:12:35.972Z,230.50
2023-03-21T08:15:03.642Z,227.18
2023-03-21T08:17:31.606Z,226.73
2023-03-21T08:20:00.591Z,224.30
2023-03-21T08:22:28.248Z,217.25
2023-03-21T08:24:55.857Z,224.35
2023-03-21T08:27:23.801Z,217.65
2023-03-21T08:29:51.433Z,231.30
2023-03-21T08:32:19.988Z,218.15
2023-03-21T08:34:47.735Z,235.25
2023-03-21T08:37:16.647Z,221.80
2023-03-21T08:39:44.459Z,232.85
2023-03-21T08:42:12.116Z,211.07
2023-03-21T08:44:41.440Z,205.73
2023-03-21T08:47:09.217Z,198.45
2023-03-21T08:49:37.228Z,192.13
2023-03-21T08:52:06.132Z,185.23
2023-03-21T08:54:35.258Z,170.30
2023-03-21T08:57:03.122Z,170.52
2023-03-21T08:59:30.889Z,174.32
2023-03-21T09:01:58.697Z,181.38
2023-03-21T09:04:26.989Z,152.40
2023-03-21T09:06:56.189Z,155.52
2023-03-21T09:09:23.941Z,160.98
2023-03-21T09:11:52.913Z,160.50
2023-03-21T09:14:23.844Z,155.35
2023-03-21T09:16:56.114Z,158.70
2023-03-21T09:19:24.220Z,143.30
2023-03-21T09:21:53.142Z,149.07
2023-03-21T09:24:21.929Z,153.05
2023-03-21T09:26:51.067Z,156.85
2023-03-21T09:29:21.339Z,156.98
2023-03-21T09:31:49.742Z,148.63
2023-03-21T09:34:17.712Z,156.02
2023-03-21T09:36:48.277Z,158.52
2023-03-21T09:39:16.158Z,150.27
2023-03-21T09:42:02.674Z,144.98
2023-03-21T09:44:44.521Z,148.98
2023-03-21T09:47:20.654Z,143.57
2023-03-21T09:49:56.617Z,147.30
2023-03-21T09:52:32.141Z,150.07
2023-03-21T09:55:00.032Z,140.45
2023-03-21T09:57:34.753Z,143.98
2023-03-21T10:00:11.336Z,144.77
2023-03-21T10:02:41.534Z,132.52
2023-03-21T10:05:17.658Z,150.57
2023-03-21T10:07:50.829Z,153.50
2023-03-21T10:10:21.720Z,159.52
2023-03-21T10:12:51.347Z,144.23
2023-03-21T10:15:23.767Z,149.35
2023-03-21T10:18:00.602Z,145.43
2023-03-21T10:20:32.449Z,140.90
2023-03-21T10:23:02.406Z,134.55
2023-03-21T10:25:34.643Z,134.90
2023-03-21T10:28:04.431Z,140.13
2023-03-21T10:30:45.197Z,138.73
2023-03-21T10:33:16.592Z,128.88
2023-03-21T10:35:47.491Z,133.65
2023-03-21T10:38:18.503Z,135.73
2023-03-21T10:40:46.917Z,134.30
2023-03-21T10:43:21.667Z,140.10
2023-03-21T10:45:50.776Z,133.27
2023-03-21T10:48:18.773Z,139.70
2023-03-21T10:50:49.977Z,143.23
2023-03-21T10:53:21.733Z,130.43
2023-03-21T10:55:52.977Z,132.27
2023-03-21T10:58:27.259Z,132.52
2023-03-21T11:00:59.117Z,129.57
2023-03-21T11:03:31.256Z,134.27
2023-03-21T11:06:04.000Z,146.98
2023-03-21T11:08:32.014Z,143.43
2023-03-21T11:11:04.016Z,146.88
2023-03-21T11:13:37.825Z,157.10
2023-03-21T11:16:09.933Z,155.98
2023-03-21T11:18:43.877Z,156.65
2023-03-21T11:21:14.283Z,147.18
2023-03-21T11:23:46.952Z,164.05
2023-03-21T11:26:23.909Z,161.60
2023-03-21T11:28:52.481Z,158.18
2023-03-21T11:31:24.727Z,159.57
2023-03-21T11:33:56.822Z,146.77
2023-03-21T11:36:35.104Z,146.07
2023-03-21T11:39:14.403Z,150.82
2023-03-21T11:41:43.690Z,165.85
2023-03-21T11:44:30.944Z,152.45
2023-03-21T11:47:00.678Z,153.13
2023-03-21T11:49:28.966Z,163.02
2023-03-21T11:52:07.388Z,163.57
2023-03-21T11:54:53.343Z,162.85
2023-03-21T11:57:29.560Z,162.55
2023-03-21T12:00:06.051Z,152.48
2023-03-21T12:03:07.895Z,154.95
2023-03-21T12:05:37.897Z,147.80
2023-03-21T12:08:18.070Z,149.60
2023-03-21T12:10:53.561Z,153.65
2023-03-21T12:13:33.135Z,175.00
2023-03-21T12:16:14.527Z,180.45
2023-03-21T12:19:01.495Z,161.98
2023-03-21T12:21:35.868Z,172.80
2023-03-21T12:24:09.923Z,169.77
2023-03-21T12:26:44.728Z,184.75
2023-03-21T12:29:37.377Z,179.65
2023-03-21T12:32:18.307Z,180.95
2023-03-21T12:35:00.466Z,172.20
2023-03-21T12:37:34.120Z,165.35
2023-03-21T12:40:10.206Z,166.55
2023-03-21T12:42:57.385Z,152.98
2023-03-21T12:45:37.321Z,144.20
2023-03-21T12:48:22.130Z,139.43
2023-03-21T12:50:54.768Z,135.60
2023-03-21T12:53:36.988Z,140.00
2023-03-21T12:56:10.241Z,131.93
2023-03-21T12:58:46.558Z,141.75
2023-03-21T13:01:17.662Z,132.40
2023-03-21T13:03:50.987Z,140.68
2023-03-21T13:06:23.721Z,139.60
2023-03-21T13:08:57.503Z,141.45
2023-03-21T13:11:28.475Z,142.82
2023-03-21T13:14:02.175Z,147.70
2023-03-21T13:16:34.328Z,142.95
2023-03-21T13:19:12.589Z,140.90
2023-03-21T13:21:52.024Z,137.18
2023-03-21T13:24:25.886Z,136.38
2023-03-21T13:27:01.352Z,129.52
2023-03-21T13:29:32.689Z,135.35
2023-03-21T13:32:09.877Z,133.18
2023-03-21T13:34:40.089Z,138.65
2023-03-21T13:37:16.448Z,144.57
2023-03-21T13:39:46.333Z,138.32
2023-03-21T13:42:22.404Z,147.73
2023-03-21T13:44:56.801Z,129.32
2023-03-21T13:47:32.991Z,130.77
2023-03-21T13:50:22.629Z,135.27
2023-03-21T13:53:33.383Z,133.63
2023-03-21T13:56:25.478Z,132.52
2023-03-21T13:59:01.874Z,144.43
2023-03-21T14:01:34.539Z,140.57
2023-03-21T14:04:10.857Z,138.88
2023-03-21T14:06:44.307Z,140.05
2023-03-21T14:09:19.830Z,138.70
2023-03-21T14:11:49.957Z,148.52
2023-03-21T14:14:18.159Z,162.88
2023-03-21T14:16:45.850Z,162.75
2023-03-21T14:19:13.713Z,185.02
2023-03-21T14:21:50.207Z,185.75
2023-03-21T14:24:19.115Z,168.32
2023-03-21T14:26:50.584Z,182.30
2023-03-21T14:29:26.432Z,209.15
2023-03-21T14:31:56.162Z,216.93
2023-03-21T14:34:24.895Z,240.48
2023-03-21T14:36:58.088Z,263.88
2023-03-21T14:39:30.851Z,241.95
2023-03-21T14:42:06.061Z,266.42
2023-03-21T14:44:51.032Z,329.20
2023-03-21T14:47:23.962Z,324.90
2023-03-21T14:49:52.156Z,323.73
2023-03-21T14:52:24.758Z,351.80
2023-03-21T14:54:53.654Z,316.40
2023-03-21T14:57:26.009Z,315.20
2023-03-21T14:59:56.180Z,313.30
2023-03-21T15:02:27.555Z,328.70
2023-03-21T15:04:58.118Z,324.02
2023-03-21T15:07:29.494Z,311.05
2023-03-21T15:09:59.181Z,314.85
2023-03-21T15:12:28.463Z,299.48
2023-03-21T15:14:56.928Z,300.13
2023-03-21T15:17:25.794Z,319.83
2023-03-21T15:19:53.568Z,326.90
2023-03-21T15:22:28.881Z,320.55
2023-03-21T15:25:01.988Z,329.88
2023-03-21T15:27:34.086Z,322.27
2023-03-21T15:30:02.041Z,315.90
2023-03-21T15:32:30.328Z,333.30
2023-03-21T15:35:07.621Z,331.48
2023-03-21T15:37:37.784Z,320.98
2023-03-21T15:40:11.293Z,323.95
2023-03-21T15:42:41.667Z,317.73
2023-03-21T15:45:19.628Z,321.38
2023-03-21T15:47:56.544Z,312.15
2023-03-21T15:50:33.308Z,330.52
2023-03-21T15:53:03.744Z,319.95
2023-03-21T15:55:37.062Z,311.30
2023-03-21T15:58:12.957Z,331.77
2023-03-21T16:00:43.754Z,327.17
2023-03-21T16:03:17.538Z,300.73
2023-03-21T16:06:04.050Z,315.25
2023-03-21T16:08:35.719Z,315.02
2023-03-21T16:11:14.943Z,299.10
2023-03-21T16:13:44.017Z,308.88
2023-03-21T16:16:17.276Z,302.23
2023-03-21T16:18:45.305Z,299.17
2023-03-21T16:21:13.693Z,305.38
2023-03-21T16:23:41.847Z,306.00
2023-03-21T16:26:12.801Z,316.35
2023-03-21T16:28:40.506Z,303.25
2023-03-21T16:31:14.140Z,302.05
2023-03-21T16:33:42.241Z,291.60
2023-03-21T16:36:14.002Z,307.48
2023-03-21T16:38:41.701Z,295.55
2023-03-21T16:41:11.605Z,308.77
2023-03-21T16:43:42.981Z,306.17
2023-03-21T16:46:14.915Z,310.95
2023-03-21T16:48:45.431Z,294.58
2023-03-21T16:51:14.820Z,299.00
2023-03-21T16:53:42.827Z,289.50
2023-03-21T16:56:16.192Z,307.13
2023-03-21T16:58:44.477Z,318.27
2023-03-21T17:01:16.454Z,313.33
2023-03-21T17:03:44.166Z,291.83
2023-03-21T17:06:15.964Z,312.20
2023-03-21T17:08:43.987Z,308.58
2023-03-21T17:11:12.520Z,300.98
2023-03-21T17:13:40.441Z,304.35
2023-03-21T17:16:08.706Z,302.58
2023-03-21T17:18:37.843Z,311.10
2023-03-21T17:21:12.837Z,294.52
2023-03-21T17:23:40.632Z,297.40
2023-03-21T17:26:10.577Z,305.55
2023-03-21T17:28:39.149Z,285.63
2023-03-21T17:31:13.490Z,300.10
2023-03-21T17:33:43.184Z,290.15
2023-03-21T17:36:15.196Z,296.27
2023-03-21T17:38:42.892Z,291.77
2023-03-21T17:41:12.790Z,293.25
2023-03-21T17:43:41.000Z,313.33
2023-03-21T17:46:13.935Z,289.38
2023-03-21T17:48:43.876Z,303.67
2023-03-21T17:51:14.578Z,287.38
2023-03-21T17:53:42.538Z,298.27
2023-03-21T17:56:14.826Z,265.23
2023-03-21T17:58:42.644Z,269.45
2023-03-21T18:01:10.395Z,304.92
2023-03-21T18:03:38.061Z,277.58
2023-03-21T18:06:08.187Z,288.13
2023-03-21T18:08:35.925Z,290.13
2023-03-21T18:11:03.642Z,286.25
2023-03-21T18:13:31.295Z,280.13
2023-03-21T18:15:59.751Z,292.60
2023-03-21T18:18:28.101Z,281.90
2023-03-21T18:20:58.040Z,282.63
2023-03-21T18:23:27.725Z,277.47
2023-03-21T18:25:55.525Z,272.00
2023-03-21T18:28:23.605Z,262.80
2023-03-21T18:31:08.622Z,282.17
2023-03-21T18:33:40.314Z,268.17
2023-03-21T18:36:09.134Z,258.50
2023-03-21T18:38:38.557Z,266.70
2023-03-21T18:41:07.545Z,254.10
2023-03-21T18:46:25.133Z,240.77
2023-03-21T18:48:52.766Z,249.27
2023-03-21T18:51:21.701Z,252.90
2023-03-21T18:53:51.387Z,277.90
2023-03-21T18:57:05.914Z,281.83
2023-03-21T18:59:08.659Z,274.88
2023-03-21T19:01:36.536Z,288.42
2023-03-21T19:06:52.936Z,256.08
2023-03-21T19:09:29.659Z,284.17
2023-03-21T19:11:59.886Z,277.25
2023-03-21T19:14:28.390Z,240.38
2023-03-21T19:19:46.592Z,246.18
2023-03-21T19:22:14.481Z,256.83
2023-03-21T19:24:44.390Z,273.85
2023-03-21T19:27:13.186Z,269.83
2023-03-21T19:29:40.794Z,247.57
2023-03-21T19:32:08.809Z,250.27
2023-03-21T19:34:36.701Z,282.48
2023-03-21T19:37:04.786Z,293.63
2023-03-21T19:39:32.517Z,291.50
2023-03-21T19:42:15.567Z,296.77
2023-03-21T19:44:44.764Z,301.60
2023-03-21T19:47:12.802Z,330.83
2023-03-21T19:52:29.198Z,328.80
2023-03-21T19:54:57.001Z,345.63
2023-03-21T19:57:26.245Z,347.90
2023-03-21T19:59:54.935Z,306.10
2023-03-21T20:02:35.144Z,327.83
2023-03-21T20:05:03.916Z,328.10
2023-03-21T20:07:32.696Z,308.65
2023-03-21T20:10:01.074Z,310.08
2023-03-21T20:12:30.653Z,321.58
2023-03-21T20:15:09.574Z,321.38
2023-03-21T20:17:43.396Z,290.38
2023-03-21T20:20:14.873Z,306.98
2023-03-21T20:23:05.693Z,313.55
2023-03-21T20:25:31.207Z,298.20
2023-03-21T20:28:15.140Z,295.08
2023-03-21T20:30:47.993Z,291.10
2023-03-21T20:33:15.755Z,296.73
2023-03-21T20:36:29.465Z,295.15
2023-03-21T20:38:32.203Z,288.08
2023-03-21T20:41:00.399Z,277.98
2023-03-21T20:44:20.398Z,307.55
2023-03-21T20:46:17.527Z,295.95
2023-03-21T20:48:48.699Z,282.27
2023-03-21T20:52:14.735Z,282.05
2023-03-21T20:54:05.109Z,309.73
2023-03-21T20:56:32.801Z,283.50
2023-03-21T20:59:15.719Z,285.90
2023-03-21T21:01:45.536Z,257.38
2023-03-21T21:04:19.279Z,287.05
2023-03-21T21:06:47.667Z,280.05
2023-03-21T21:09:15.474Z,297.20
2023-03-21T21:12:06.050Z,291.42
2023-03-21T21:14:32.227Z,285.75
2023-03-21T21:17:04.950Z,281.08
2023-03-21T21:19:40.196Z,289.05
2023-03-21T21:22:07.811Z,281.63
2023-03-21T21:24:35.564Z,276.02
2023-03-21T21:27:03.244Z,293.73
2023-03-21T21:29:32.543Z,293.80
2023-03-21T21:32:02.319Z,273.23
2023-03-21T21:34:30.371Z,286.92
2023-03-21T21:36:58.075Z,288.90
2023-03-21T21:39:26.550Z,292.90
2023-03-21T21:41:54.636Z,301.35
2023-03-21T21:44:22.381Z,286.83
2023-03-21T21:46:51.407Z,282.55
2023-03-21T21:49:19.074Z,320.77
2023-03-21T21:51:48.038Z,321.08
2023-03-21T21:54:18.222Z,300.08
2023-03-21T21:56:48.290Z,321.65
2023-03-21T21:59:17.044Z,308.65
2023-03-21T22:01:46.557Z,330.20
2023-03-21T22:04:17.928Z,309.63
2023-03-21T22:06:47.521Z,319.27
2023-03-21T22:09:15.683Z,304.30
2023-03-21T22:11:43.817Z,310.77
2023-03-21T22:14:11.406Z,313.85
2023-03-21T22:16:39.089Z,320.58
2023-03-21T22:19:06.786Z,324.42
2023-03-21T22:21:35.815Z,320.88
2023-03-21T22:24:03.596Z,312.35
2023-03-21T22:26:31.358Z,318.73
2023-03-21T22:28:59.886Z,310.27
2023-03-21T22:31:27.536Z,317.50
2023-03-21T22:33:55.300Z,299.02
2023-03-21T22:36:22.905Z,321.90
2023-03-21T22:38:51.863Z,294.35
2023-03-21T22:41:19.901Z,299.35
2023-03-21T22:43:47.535Z,328.27
2023-03-21T22:46:15.508Z,312.70
2023-03-21T22:48:43.442Z,316.73
2023-03-21T22:51:11.261Z,326.05
2023-03-21T22:53:38.873Z,319.58
2023-03-21T22:56:09.420Z,307.60
2023-03-21T22:58:37.066Z,310.67
2023-03-21T23:01:05.182Z,299.73
2023-03-21T23:03:33.332Z,311.25
2023-03-21T23:06:02.091Z,304.15
2023-03-21T23:08:29.870Z,315.25
2023-03-21T23:10:57.527Z,304.40
2023-03-21T23:13:27.906Z,307.67
2023-03-21T23:15:55.705Z,294.52
2023-03-21T23:18:23.345Z,305.42
2023-03-21T23:20:51.332Z,277.55
2023-03-21T23:23:18.963Z,301.25
2023-03-21T23:25:46.813Z,281.38
2023-03-21T23:28:14.416Z,314.38
2023-03-21T23:30:43.682Z,273.17
2023-03-21T23:33:11.526Z,288.73
2023-03-21T23:35:39.300Z,284.77
2023-03-21T23:38:07.005Z,304.08
2023-03-21T23:40:34.615Z,303.00
2023-03-21T23:43:02.260Z,304.35
2023-03-21T23:45:29.953Z,302.10
2023-03-21T23:47:58.963Z,304.70
2023-03-21T23:50:26.732Z,300.42
2023-03-21T23:52:54.626Z,299.70
2023-03-21T23:55:22.250Z,292.65
2023-03-21T23:57:58.711Z,324.45
